KHOB

Lea County Regional Airport

Hobbs, New Mexico, USA
METAR KHOB 161035Z AUTO 22005KT 10SM CLR M04/M06 A3000 RMK AO2
Observed Flight Rules
Dec-16 @ 10:35 UTC (23 minutes ago) Visual Flight Rules
Wind Visibility Clouds
220° at 5 knots 10 miles
  • Clear skies
Temperatures Readings
Current -4°C / 25°F
Dewpoint -6°C / 21°F
Humidity 86%
Altimeter 30" Hg
Pressure 1016 hPa
Elevation 1115
METAR KHOB 161035Z AUTO 22005KT 10SM CLR M04/M06 A3000 RMK AO2
Observed Flight Rules
Dec-16 @ 10:35 UTC
(23 minutes ago)
VFR
Wind Visibility
220° at 5 knots 10 miles
Clouds
  • Clear skies
Temperature Dewpoint
-4°C / 25°F -6°C / 21°F
Humidity Altimeter Pressure
86% 30" Hg 1016 hPa